< < Back
Terminal Aerodrome Forecast


Current Version              Previous Versions:   1  2  3  4  5  6  7  8  9  

Terminal Aerodrome Forecast

609
FTUS44 KMRX 242320
TAFCHA
TAF
KCHA 242320Z 2500/2524 01003KT P6SM SCT200
     FM250000 00000KT P6SM SCT250
     FM251300 01005KT P6SM SCT150 BKN250=

Latest METAR

454
SAUS80 KWBC 250900 RRB
MTRCHA
METAR KCHA 250853Z 00000KT 10SM CLR 07/06 A3007 RMK AO2 SLP180 T00720061
58001


USA.gov is the U.S. government's official web portal to all federal, state and local government web resources and services.